Time;durP1;ratioP1;P1;durP2;ratioP2;P2;SDS_P1;SDS_P2;PMS_P1;PMS_P2;Temp;Humidity;BMP_temperature;BMP_pressure;BME280_temperature;BME280_humidity;BME280_pressure;Samples;Min_cycle;Max_cycle;Signal;HPM_P1;HPM_P2
2023/02/26 00:01:20;;;;;;;34.20;16.57;;;;;;;6.85;75.69;97066.66;5021996;28;20063;-64
2023/02/26 00:03:54;;;;;;;35.77;16.73;;;;;;;7.06;77.77;97002.38;5021137;28;20123;-64
2023/02/26 00:06:21;;;;;;;35.30;15.57;;;;;;;6.78;78.06;97033.34;5038306;28;20384;-62
2023/02/26 00:08:46;;;;;;;37.97;16.47;;;;;;;6.49;79.64;97015.16;5038014;28;20048;-66
2023/02/26 00:11:12;;;;;;;42.50;16.97;;;;;;;6.51;80.06;97011.34;5021780;28;20040;-62
2023/02/26 00:13:40;;;;;;;42.30;16.43;;;;;;;6.84;79.63;96982.44;5021776;28;20593;-64
2023/02/26 00:16:33;;;;;;;34.20;15.10;;;;;;;7.33;79.12;96990.03;5055021;28;20054;-65
2023/02/26 00:19:02;;;;;;;36.03;14.87;;;;;;;7.11;78.93;96970.09;5002906;28;20529;-64
2023/02/26 00:21:29;;;;;;;35.83;15.00;;;;;;;6.70;78.73;96978.94;5037947;28;20462;-63
2023/02/26 00:23:55;;;;;;;42.47;16.67;;;;;;;6.47;80.16;96967.13;5054622;28;20047;-64
2023/02/26 00:26:22;;;;;;;34.83;14.73;;;;;;;6.78;80.24;96941.84;5037702;28;20064;-64
2023/02/26 00:28:48;;;;;;;29.67;13.83;;;;;;;6.32;81.13;96969.09;5037978;28;20109;-64
2023/02/26 00:31:15;;;;;;;33.53;14.53;;;;;;;6.58;82.58;96932.28;5037949;28;20827;-64
2023/02/26 00:33:42;;;;;;;39.60;13.97;;;;;;;6.55;81.73;96928.19;5054291;28;20040;-64
2023/02/26 00:36:29;;;;;;;31.30;13.33;;;;;;;7.11;81.69;96902.31;5071295;28;20048;-65
2023/02/26 00:39:09;;;;;;;21.27;10.60;;;;;;;6.82;81.22;96924.63;5021159;28;20074;-63
2023/02/26 00:41:35;;;;;;;28.63;12.17;;;;;;;6.38;80.73;96916.38;5054622;28;20408;-64
2023/02/26 00:44:01;;;;;;;24.83;11.30;;;;;;;6.58;81.03;96884.81;5004790;28;20048;-63
2023/02/26 00:46:41;;;;;;;55.43;11.83;;;;;;;7.03;81.24;96893.81;5037754;28;20071;-62
2023/02/26 00:49:49;;;;;;;20.88;10.30;;;;;;;6.67;80.62;96916.03;5005241;28;20047;-64
2023/02/26 00:52:41;;;;;;;21.57;9.33;;;;;;;6.88;80.54;96886.06;4942335;28;20133;-65
2023/02/26 00:55:07;;;;;;;21.43;10.00;;;;;;;6.57;78.90;96917.44;4965463;28;20093;-65
2023/02/26 00:57:33;;;;;;;17.90;8.80;;;;;;;5.97;79.68;96923.50;5032960;28;20152;-62
2023/02/26 01:00:04;;;;;;;27.13;10.47;;;;;;;6.56;81.03;96926.38;5020220;28;20439;-66
2023/02/26 01:02:31;;;;;;;28.23;12.87;;;;;;;6.25;80.92;96911.06;5071484;28;20384;-64
2023/02/26 01:04:57;;;;;;;23.30;10.30;;;;;;;6.26;80.34;96886.34;5037492;28;20512;-61
2023/02/26 01:07:23;;;;;;;24.00;11.07;;;;;;;6.70;79.94;96897.19;5037168;28;20044;-64
2023/02/26 01:09:49;;;;;;;18.40;8.40;;;;;;;6.33;80.54;96897.72;5037233;28;20078;-63
2023/02/26 01:12:16;;;;;;;22.80;9.23;;;;;;;6.14;81.38;96890.56;5004128;28;20055;-62
2023/02/26 01:14:43;;;;;;;50.10;9.60;;;;;;;6.36;82.10;96878.06;5020633;28;20040;-62
2023/02/26 01:17:35;;;;;;;24.13;9.47;;;;;;;6.72;82.19;96887.25;5020791;28;20055;-64
2023/02/26 01:20:14;;;;;;;19.13;9.60;;;;;;;6.37;81.11;96888.41;5053559;28;20480;-61
2023/02/26 01:22:45;;;;;;;18.43;8.00;;;;;;;6.18;82.75;96870.69;5037056;28;20476;-67
2023/02/26 01:25:15;;;;;;;20.43;8.93;;;;;;;6.12;84.13;96868.84;5053518;28;20420;-64
2023/02/26 01:27:41;;;;;;;20.17;9.33;;;;;;;5.86;82.97;96873.22;5004259;28;20040;-63
2023/02/26 01:30:08;;;;;;;15.80;7.90;;;;;;;6.03;82.94;96893.75;5037158;28;20045;-61
2023/02/26 01:33:05;;;;;;;19.77;8.33;;;;;;;6.60;82.94;96882.78;5020546;28;20056;-64
2023/02/26 01:35:47;;;;;;;18.23;8.87;;;;;;;6.70;81.97;96852.34;5053615;28;20055;-61
2023/02/26 01:38:26;;;;;;;21.90;9.07;;;;;;;6.68;82.32;96880.78;5053567;28;20069;-62
2023/02/26 01:41:23;;;;;;;24.10;9.67;;;;;;;6.92;82.17;96841.63;5020745;28;20041;-60
2023/02/26 01:43:56;;;;;;;21.07;9.40;;;;;;;6.85;81.20;96845.09;5036785;28;20144;-64
2023/02/26 01:47:11;;;;;;;25.43;8.80;;;;;;;6.89;80.33;96848.94;5036644;28;20048;-63
2023/02/26 01:49:39;;;;;;;19.90;8.77;;;;;;;6.31;80.64;96836.50;5067606;28;20416;-68
2023/02/26 01:52:27;;;;;;;22.40;8.80;;;;;;;6.34;81.03;96830.81;5036878;28;20522;-64
2023/02/26 01:54:52;;;;;;;31.83;8.77;;;;;;;6.23;80.98;96831.41;5019639;28;20060;-64
2023/02/26 01:57:20;;;;;;;23.57;9.00;;;;;;;6.33;81.80;96821.31;5036541;28;20041;-64
2023/02/26 01:59:49;;;;;;;19.13;9.73;;;;;;;6.40;81.80;96810.75;5036488;28;20131;-64
2023/02/26 02:02:21;;;;;;;22.97;9.77;;;;;;;6.65;82.33;96807.34;5053191;28;20080;-64
2023/02/26 02:04:48;;;;;;;22.77;9.33;;;;;;;6.69;81.41;96795.38;5070137;28;20094;-63
2023/02/26 02:07:14;;;;;;;22.93;10.47;;;;;;;6.52;79.11;96807.31;5036516;28;20044;-61
2023/02/26 02:09:41;;;;;;;19.57;9.00;;;;;;;6.16;80.64;96812.13;5056998;28;20138;-66
2023/02/26 02:12:31;;;;;;;23.30;9.50;;;;;;;7.06;81.27;96807.13;5060835;28;20043;-63
2023/02/26 02:15:28;;;;;;;24.25;11.38;;;;;;;7.09;80.34;96803.28;5080134;28;20132;-63
2023/02/26 02:17:57;;;;;;;18.37;9.63;;;;;;;6.81;78.11;96814.06;5063903;28;20039;-64
2023/02/26 02:20:23;;;;;;;28.90;10.60;;;;;;;6.52;79.02;96817.88;5063795;28;20055;-64
2023/02/26 02:22:59;;;;;;;24.17;10.77;;;;;;;6.75;79.54;96828.84;5080213;28;20427;-64
2023/02/26 02:25:24;;;;;;;19.30;8.50;;;;;;;6.37;78.83;96819.06;5080470;28;20063;-64
2023/02/26 02:28:02;;;;;;;22.93;9.23;;;;;;;7.04;79.30;96806.53;5063422;28;20078;-67
2023/02/26 02:30:46;;;;;;;26.53;8.63;;;;;;;6.36;78.35;96810.34;5080230;28;20043;-64
2023/02/26 02:33:15;;;;;;;30.37;10.33;;;;;;;6.71;78.41;96814.44;5080209;28;20051;-64
2023/02/26 02:35:44;;;;;;;28.60;9.53;;;;;;;6.76;79.21;96793.53;5096881;28;20035;-64
2023/02/26 02:38:20;;;;;;;19.87;9.20;;;;;;;6.75;80.84;96788.47;5063710;28;20047;-64
2023/02/26 02:40:50;;;;;;;21.97;8.63;;;;;;;6.61;80.27;96784.22;5097010;28;20767;-65
2023/02/26 02:43:19;;;;;;;24.77;8.80;;;;;;;6.44;80.15;96781.16;5063385;28;20046;-65
2023/02/26 02:45:54;;;;;;;29.50;10.50;;;;;;;6.82;81.13;96770.81;5097052;28;20067;-64
2023/02/26 02:48:36;;;;;;;23.40;8.97;;;;;;;6.99;79.97;96772.03;5114736;28;20047;-65
2023/02/26 02:51:05;;;;;;;25.97;10.20;;;;;;;7.00;79.51;96770.19;5096505;28;20050;-64
2023/02/26 02:53:35;;;;;;;21.70;9.07;;;;;;;6.75;79.88;96764.72;5113955;28;20051;-61
2023/02/26 02:56:28;;;;;;;19.27;8.52;;;;;;;7.02;78.95;96773.44;5079789;28;20047;-65
2023/02/26 02:59:10;;;;;;;18.70;8.50;;;;;;;7.13;79.23;96756.97;5079252;28;20146;-63
2023/02/26 03:01:37;;;;;;;15.97;8.07;;;;;;;6.87;79.12;96765.75;5079960;28;20524;-63
2023/02/26 03:04:09;;;;;;;15.97;8.00;;;;;;;6.94;78.99;96795.56;5096375;28;20047;-64
2023/02/26 03:06:36;;;;;;;17.43;8.10;;;;;;;6.73;79.25;96772.06;5096866;28;20043;-63
2023/02/26 03:09:03;;;;;;;17.33;7.93;;;;;;;6.73;78.79;96770.19;5079796;28;20085;-63
2023/02/26 03:11:31;;;;;;;15.50;7.80;;;;;;;6.56;79.79;96776.09;5062917;28;20046;-62
2023/02/26 03:13:58;;;;;;;15.90;9.17;;;;;;;6.45;80.44;96758.25;5062737;28;20047;-63
2023/02/26 03:16:27;;;;;;;16.98;8.65;;;;;;;6.44;79.43;96775.88;5063878;28;20055;-61
2023/02/26 03:19:25;;;;;;;19.97;9.30;;;;;;;7.13;80.37;96752.53;5062721;28;20040;-62
2023/02/26 03:22:01;;;;;;;18.33;9.73;;;;;;;6.95;79.05;96760.25;5062819;28;20035;-61
2023/02/26 03:25:00;;;;;;;18.10;9.03;;;;;;;7.07;79.06;96760.44;5084655;28;20475;-64
2023/02/26 03:27:36;;;;;;;17.80;9.77;;;;;;;7.11;78.97;96754.56;5062932;28;20039;-65
2023/02/26 03:30:18;;;;;;;18.60;10.60;;;;;;;7.14;78.55;96758.59;5062436;28;20504;-65
2023/02/26 03:33:00;;;;;;;24.03;10.73;;;;;;;7.25;79.05;96766.69;5062789;28;20051;-60
2023/02/26 03:35:37;;;;;;;16.23;9.70;;;;;;;7.37;78.24;96774.78;5078942;28;20097;-61
2023/02/26 03:38:08;;;;;;;20.77;10.27;;;;;;;7.31;77.54;96775.59;5079078;28;20100;-62
2023/02/26 03:40:42;;;;;;;26.20;10.87;;;;;;;7.32;77.38;96772.75;5080224;28;20039;-62
2023/02/26 03:43:43;;;;;;;22.43;10.17;;;;;;;7.39;77.57;96778.03;5062997;28;20460;-63
2023/02/26 03:46:16;;;;;;;22.48;10.85;;;;;;;7.09;77.64;96779.53;5095420;28;20399;-61
2023/02/26 03:48:42;;;;;;;;;;;;;;;7.59;76.67;96802.53;5079503;28;20456;-58
2023/02/26 03:51:10;;;;;;;21.57;10.50;;;;;;;6.99;77.68;96792.31;5062382;28;19916;-65
2023/02/26 03:54:00;;;;;;;22.17;10.73;;;;;;;7.01;78.48;96758.63;5081161;28;20138;-63
2023/02/26 03:56:48;;;;;;;22.87;10.07;;;;;;;7.03;78.88;96788.28;5079269;28;20043;-61
2023/02/26 03:59:35;;;;;;;20.33;10.23;;;;;;;6.62;78.87;96799.84;5097933;28;20498;-62
2023/02/26 04:02:27;;;;;;;24.90;12.07;;;;;;;6.77;80.42;96802.25;5050732;28;20039;-66
2023/02/26 04:05:07;;;;;;;24.63;11.17;;;;;;;6.93;80.36;96836.16;5079273;28;20067;-63
2023/02/26 04:07:33;;;;;;;20.00;11.07;;;;;;;6.58;80.05;96826.81;5078252;28;20043;-62
2023/02/26 04:10:01;;;;;;;25.37;11.77;;;;;;;6.39;80.18;96823.13;5045423;28;20545;-63
2023/02/26 04:12:31;;;;;;;22.43;10.50;;;;;;;6.53;80.51;96819.47;5078879;28;20112;-59
2023/02/26 04:14:57;;;;;;;22.63;10.63;;;;;;;6.51;80.87;96842.63;5112088;28;20583;-59
2023/02/26 04:17:24;;;;;;;20.33;10.97;;;;;;;6.33;80.59;96838.94;5078154;28;20497;-61
2023/02/26 04:19:50;;;;;;;22.20;10.93;;;;;;;6.33;81.08;96860.84;5061845;28;20066;-59
2023/02/26 04:22:17;;;;;;;22.97;10.70;;;;;;;6.36;80.95;96838.53;5061551;28;20461;-59
2023/02/26 04:24:43;;;;;;;19.50;10.40;;;;;;;6.24;80.81;96871.75;5061468;28;20492;-61
2023/02/26 04:27:09;;;;;;;21.27;10.13;;;;;;;6.29;81.54;96864.84;5095095;28;20039;-65
2023/02/26 04:29:36;;;;;;;20.43;9.47;;;;;;;6.51;80.92;96860.25;5061728;28;20046;-60
2023/02/26 04:32:02;;;;;;;15.77;8.73;;;;;;;6.30;81.11;96855.97;5078192;28;20387;-60
2023/02/26 04:34:28;;;;;;;18.27;9.43;;;;;;;6.44;81.10;96881.31;5060443;28;20773;-61
2023/02/26 04:36:55;;;;;;;13.33;8.27;;;;;;;6.44;81.27;96918.22;5060079;28;20475;-61
2023/02/26 04:39:21;;;;;;;15.97;8.80;;;;;;;6.49;81.02;96896.53;5061171;28;20044;-60
2023/02/26 04:41:47;;;;;;;17.50;8.33;;;;;;;6.53;80.71;96910.97;5077693;28;20051;-58
2023/02/26 04:44:13;;;;;;;14.30;7.60;;;;;;;6.59;80.27;96907.53;5077723;28;20048;-59
2023/02/26 04:46:41;;;;;;;16.93;8.77;;;;;;;6.64;80.10;96892.72;5077963;28;20104;-61
2023/02/26 04:49:06;;;;;;;12.97;7.67;;;;;;;6.56;79.87;96908.75;5061386;28;20031;-61
2023/02/26 04:51:34;;;;;;;14.77;8.67;;;;;;;6.59;80.18;96908.34;5078087;28;20050;-59
2023/02/26 04:54:00;;;;;;;22.43;9.63;;;;;;;6.72;79.91;96916.28;5060642;28;20063;-59
2023/02/26 04:56:26;;;;;;;11.67;6.70;;;;;;;6.53;79.94;96900.41;5044334;28;20058;-60
2023/02/26 04:58:52;;;;;;;11.70;7.17;;;;;;;6.79;79.68;96921.56;5077237;28;20047;-60
2023/02/26 05:01:23;;;;;;;8.70;5.57;;;;;;;6.79;78.86;96901.28;5077431;28;20066;-59
2023/02/26 05:03:49;;;;;;;8.13;4.83;;;;;;;6.58;79.06;96901.44;5077476;28;20039;-60
2023/02/26 05:06:15;;;;;;;9.37;4.90;;;;;;;6.65;79.48;96923.38;5060656;28;20043;-58
2023/02/26 05:08:41;;;;;;;7.57;3.73;;;;;;;6.85;79.56;96907.56;5060469;28;20390;-61
2023/02/26 05:11:09;;;;;;;6.33;3.63;;;;;;;7.05;78.46;96933.97;5077412;28;20074;-63
2023/02/26 05:13:35;;;;;;;7.40;3.37;;;;;;;6.76;78.51;96940.44;5077374;28;20118;-61
2023/02/26 05:16:01;;;;;;;6.20;3.40;;;;;;;7.12;77.23;96945.34;5076751;28;20474;-61
2023/02/26 05:18:28;;;;;;;3.57;2.53;;;;;;;7.02;75.42;96955.47;5060422;28;20059;-60
2023/02/26 05:20:55;;;;;;;4.20;3.00;;;;;;;7.32;76.83;96935.63;5060297;28;20098;-57
2023/02/26 05:23:21;;;;;;;4.80;3.53;;;;;;;7.03;75.26;96960.56;5077150;28;20055;-62
2023/02/26 05:25:47;;;;;;;5.67;3.70;;;;;;;6.74;76.21;96942.44;5093576;28;20039;-64
2023/02/26 05:28:14;;;;;;;3.50;2.60;;;;;;;6.83;74.69;96973.72;5093800;28;20047;-64
2023/02/26 05:30:41;;;;;;;5.40;2.80;;;;;;;6.93;75.01;96957.50;5077115;28;20043;-62
2023/02/26 05:33:07;;;;;;;5.53;2.60;;;;;;;6.99;74.11;97001.56;5093907;28;20138;-62
2023/02/26 05:35:32;;;;;;;3.80;2.67;;;;;;;6.73;73.47;96975.09;5076818;28;20051;-63
2023/02/26 05:38:01;;;;;;;3.10;1.83;;;;;;;7.15;73.94;96966.06;5076864;28;20093;-65
2023/02/26 05:40:27;;;;;;;2.83;1.90;;;;;;;6.48;74.09;96979.28;5060052;28;20040;-61
2023/02/26 05:42:52;;;;;;;1.80;1.70;;;;;;;6.59;73.73;97012.97;5043601;28;20043;-64
2023/02/26 05:45:18;;;;;;;2.07;1.83;;;;;;;6.87;73.63;96961.75;5060039;28;20112;-62
2023/02/26 05:47:44;;;;;;;3.20;1.80;;;;;;;6.65;72.43;97013.03;5076638;28;20039;-62
2023/02/26 05:50:13;;;;;;;2.10;1.90;;;;;;;7.12;72.47;96998.94;5043607;28;20036;-64
2023/02/26 05:52:42;;;;;;;3.67;2.10;;;;;;;7.11;71.40;97034.25;5060291;28;20036;-65
2023/02/26 05:55:08;;;;;;;1.90;1.57;;;;;;;7.13;72.11;96997.94;5060166;28;20052;-64
2023/02/26 05:57:34;;;;;;;2.10;1.90;;;;;;;7.18;70.35;97031.63;5060209;28;20478;-62
2023/02/26 06:00:00;;;;;;;1.70;1.60;;;;;;;7.18;70.10;97013.97;5059772;28;20099;-61
2023/02/26 06:02:26;;;;;;;2.10;1.90;;;;;;;7.10;69.69;97005.44;5047989;28;20510;-64
2023/02/26 06:04:52;;;;;;;2.07;1.77;;;;;;;7.08;68.64;97008.28;5012355;28;20045;-73
2023/02/26 06:07:18;;;;;;;1.70;1.60;;;;;;;6.94;68.04;97067.28;5039894;28;20138;-64
2023/02/26 06:09:43;;;;;;;1.70;1.60;;;;;;;7.08;68.03;97023.28;5024547;28;20039;-65
2023/02/26 06:12:09;;;;;;;1.77;1.60;;;;;;;7.04;67.00;97009.69;5041030;28;20044;-74
2023/02/26 06:14:35;;;;;;;1.70;1.60;;;;;;;7.10;65.90;97056.38;5074208;28;20491;-65
2023/02/26 06:17:02;;;;;;;1.70;1.60;;;;;;;7.14;66.76;97049.69;5040454;28;20190;-65
2023/02/26 06:19:28;;;;;;;2.50;1.70;;;;;;;7.04;66.16;97038.72;5054274;28;20592;-62
2023/02/26 06:21:55;;;;;;;2.13;1.70;;;;;;;7.11;66.56;97033.44;5076646;28;20539;-63
2023/02/26 06:24:22;;;;;;;1.80;1.70;;;;;;;6.92;66.67;97050.03;5061027;28;20498;-63
2023/02/26 06:26:48;;;;;;;1.90;1.80;;;;;;;7.29;67.83;97070.66;5044150;28;20058;-66
2023/02/26 06:29:14;;;;;;;2.13;1.73;;;;;;;7.14;67.08;97036.50;5059703;28;20506;-63
2023/02/26 06:31:39;;;;;;;1.87;1.77;;;;;;;7.10;66.07;97092.50;5077373;28;20078;-62
2023/02/26 06:34:05;;;;;;;2.00;1.80;;;;;;;7.03;66.22;97062.66;5060911;28;20100;-63
2023/02/26 06:36:31;;;;;;;3.97;2.10;;;;;;;7.31;66.80;97055.41;5060498;28;20391;-64
2023/02/26 06:39:00;;;;;;;2.53;2.03;;;;;;;7.32;65.57;97063.13;5041095;28;20047;-64
2023/02/26 06:41:26;;;;;;;2.77;2.00;;;;;;;7.07;65.65;97100.81;5045431;28;20097;-64
2023/02/26 06:43:51;;;;;;;3.77;2.60;;;;;;;7.46;66.25;97098.28;5047117;28;20436;-64
2023/02/26 06:46:17;;;;;;;3.83;2.00;;;;;;;7.34;65.55;97078.75;5029113;28;20039;-64
2023/02/26 06:48:43;;;;;;;4.23;2.00;;;;;;;7.34;64.48;97081.41;5037221;28;20471;-63
2023/02/26 06:51:09;;;;;;;3.00;2.60;;;;;;;7.52;64.91;97100.16;5038195;28;20068;-62
2023/02/26 06:53:35;;;;;;;2.40;2.20;;;;;;;7.13;64.24;97119.31;5045064;28;20129;-63
2023/02/26 06:56:01;;;;;;;2.53;2.30;;;;;;;7.23;64.74;97089.91;5020889;28;20044;-63
2023/02/26 06:58:27;;;;;;;2.63;2.10;;;;;;;7.16;64.71;97131.31;5039439;28;20046;-63
2023/02/26 07:00:53;;;;;;;2.33;2.07;;;;;;;7.27;65.39;97105.16;5031197;28;20122;-64
2023/02/26 07:03:23;;;;;;;2.80;1.93;;;;;;;7.51;64.90;97124.91;5034766;28;20039;-63
2023/02/26 07:05:56;;;;;;;3.83;2.97;;;;;;;7.31;64.97;97118.75;5071327;28;20147;-64
2023/02/26 07:08:22;;;;;;;4.97;3.00;;;;;;;7.22;64.69;97109.41;5057292;28;20119;-65
2023/02/26 07:10:49;;;;;;;3.77;2.57;;;;;;;7.30;64.59;97143.53;5049568;28;20052;-66
2023/02/26 07:13:16;;;;;;;3.73;2.40;;;;;;;7.52;64.60;97123.91;5047621;28;20067;-64
2023/02/26 07:15:41;;;;;;;3.70;2.57;;;;;;;7.30;63.49;97132.97;5074726;28;20043;-63
2023/02/26 07:18:09;;;;;;;3.77;2.40;;;;;;;7.36;63.45;97138.28;5076671;28;20036;-64
2023/02/26 07:20:34;;;;;;;2.40;2.20;;;;;;;7.37;63.19;97176.88;5077048;28;20051;-63
2023/02/26 07:23:01;;;;;;;5.90;2.40;;;;;;;7.22;62.59;97154.25;5059395;28;20102;-64
2023/02/26 07:25:27;;;;;;;2.60;1.90;;;;;;;7.06;63.02;97144.84;5027274;28;20456;-64
2023/02/26 07:27:53;;;;;;;4.40;2.30;;;;;;;7.23;63.88;97132.94;5043425;28;20130;-63
2023/02/26 07:30:19;;;;;;;2.90;2.60;;;;;;;7.24;63.32;97144.34;5047639;28;20047;-63
2023/02/26 07:32:45;;;;;;;4.03;2.20;;;;;;;7.20;63.00;97138.63;5016981;28;20036;-63
2023/02/26 07:35:11;;;;;;;2.93;2.23;;;;;;;7.35;62.96;97146.41;5037587;28;20040;-64
2023/02/26 07:37:36;;;;;;;4.63;2.53;;;;;;;7.46;62.21;97169.56;5083000;28;20047;-64
2023/02/26 07:40:03;;;;;;;2.80;2.40;;;;;;;7.49;62.44;97175.28;5033025;28;20048;-64
2023/02/26 07:42:29;;;;;;;3.33;2.27;;;;;;;7.39;61.82;97166.09;5064601;28;20377;-62
2023/02/26 07:44:55;;;;;;;2.13;1.93;;;;;;;7.39;61.82;97143.16;5064786;28;20046;-60
2023/02/26 07:47:20;;;;;;;2.80;1.90;;;;;;;7.47;60.88;97187.88;5041114;28;20444;-62
2023/02/26 07:49:46;;;;;;;3.60;2.23;;;;;;;7.91;59.97;97174.97;5046492;28;20093;-63
2023/02/26 07:52:12;;;;;;;4.03;2.17;;;;;;;8.07;58.66;97194.94;5031211;28;20040;-64
2023/02/26 07:54:38;;;;;;;2.53;2.10;;;;;;;8.15;58.39;97168.28;5074636;28;20492;-66
2023/02/26 07:57:06;;;;;;;2.00;1.80;;;;;;;8.10;57.09;97183.97;5023269;28;20044;-64
2023/02/26 07:59:35;;;;;;;2.23;1.73;;;;;;;8.29;57.39;97206.97;5073611;28;20346;-64
2023/02/26 08:02:00;;;;;;;6.20;2.00;;;;;;;7.86;57.03;97198.53;5039280;28;20508;-60
2023/02/26 08:04:26;;;;;;;1.80;1.70;;;;;;;7.55;57.18;97190.31;5039129;28;20074;-63
2023/02/26 08:06:56;;;;;;;2.70;1.73;;;;;;;7.52;57.94;97206.56;5067162;28;20048;-65
2023/02/26 08:09:21;;;;;;;3.77;1.60;;;;;;;7.42;57.87;97179.75;5064696;28;20040;-68
2023/02/26 08:11:47;;;;;;;2.13;1.73;;;;;;;7.55;58.82;97194.81;5048500;28;20112;-65
2023/02/26 08:14:13;;;;;;;2.73;1.70;;;;;;;7.43;58.93;97199.00;5064022;28;20036;-64
2023/02/26 08:16:39;;;;;;;3.50;1.77;;;;;;;7.69;59.41;97184.06;5072893;28;20135;-62
2023/02/26 08:19:05;;;;;;;5.73;1.70;;;;;;;7.52;59.21;97226.91;5060712;28;20123;-66
2023/02/26 08:21:31;;;;;;;2.57;1.70;;;;;;;7.55;58.32;97219.38;5022597;28;20134;-64
2023/02/26 08:23:56;;;;;;;3.30;1.60;;;;;;;7.58;58.50;97220.81;5022522;28;20040;-62
2023/02/26 08:26:22;;;;;;;13.83;2.47;;;;;;;7.42;59.71;97237.81;5039093;28;20052;-64
2023/02/26 08:28:48;;;;;;;3.93;1.93;;;;;;;7.30;60.92;97218.28;5005996;28;20393;-65
2023/02/26 08:31:15;;;;;;;2.50;1.77;;;;;;;7.36;61.28;97243.88;5022506;28;20048;-65
2023/02/26 08:33:43;;;;;;;1.70;1.60;;;;;;;7.45;61.03;97241.88;5038793;28;20140;-65
2023/02/26 08:36:11;;;;;;;1.90;1.80;;;;;;;7.28;60.38;97225.56;5039125;28;20222;-67
2023/02/26 08:38:38;;;;;;;1.67;1.57;;;;;;;7.49;59.18;97212.25;5039056;28;20044;-66
2023/02/26 08:41:04;;;;;;;1.73;1.47;;;;;;;8.01;57.54;97270.53;5055745;28;20056;-64
2023/02/26 08:43:32;;;;;;;2.63;1.70;;;;;;;8.38;56.49;97233.00;5022203;28;20037;-64
2023/02/26 08:45:59;;;;;;;1.50;1.40;;;;;;;8.51;53.46;97263.94;5055133;28;20044;-64
2023/02/26 08:48:25;;;;;;;2.00;1.60;;;;;;;9.87;50.96;97257.56;5022481;28;20075;-64
2023/02/26 08:50:51;;;;;;;1.10;1.02;;;;;;;9.84;48.33;97279.19;5005701;28;20411;-65
2023/02/26 08:53:17;;;;;;;4.20;1.55;;;;;;;9.74;48.02;97286.78;5022121;28;20036;-63
2023/02/26 08:55:47;;;;;;;1.88;1.38;;;;;;;9.80;48.83;97256.78;5021561;28;20056;-63
2023/02/26 08:58:13;;;;;;;1.23;1.13;;;;;;;9.10;48.71;97256.00;5021943;28;20414;-64
2023/02/26 09:00:38;;;;;;;3.28;1.30;;;;;;;8.79;49.47;97269.03;5021758;28;20093;-65
2023/02/26 09:03:04;;;;;;;1.55;1.30;;;;;;;8.35;49.66;97275.72;5013497;28;20040;-63
2023/02/26 09:05:30;;;;;;;2.22;1.60;;;;;;;8.64;49.77;97266.63;5031214;28;20047;-66
2023/02/26 09:07:56;;;;;;;3.65;1.60;;;;;;;8.01;50.22;97326.03;5045147;28;20127;-66
2023/02/26 09:10:22;;;;;;;3.03;1.33;;;;;;;7.44;51.60;97258.75;5029397;28;20488;-65
2023/02/26 09:12:48;;;;;;;1.52;1.38;;;;;;;7.46;53.09;97277.84;5040543;28;20119;-66
2023/02/26 09:15:14;;;;;;;1.40;1.30;;;;;;;7.44;53.62;97335.31;5040438;28;20111;-65
2023/02/26 09:17:40;;;;;;;3.13;1.90;;;;;;;7.65;53.99;97295.59;5057529;28;20609;-66
2023/02/26 09:20:08;;;;;;;1.40;1.30;;;;;;;7.39;54.12;97306.88;5057945;28;20044;-65
2023/02/26 09:22:34;;;;;;;1.20;1.10;;;;;;;7.01;55.37;97299.50;5090667;28;20066;-66
2023/02/26 09:25:00;;;;;;;3.07;1.87;;;;;;;6.85;56.09;97317.25;5023513;28;20043;-65
2023/02/26 09:27:29;;;;;;;1.40;1.30;;;;;;;6.97;56.20;97324.63;5058063;28;20044;-64
2023/02/26 09:29:54;;;;;;;2.23;1.40;;;;;;;7.17;55.57;97352.81;5024848;28;20530;-64
2023/02/26 09:32:20;;;;;;;1.77;1.30;;;;;;;7.08;53.95;97335.47;5041268;28;20048;-65
2023/02/26 09:34:46;;;;;;;1.30;1.17;;;;;;;7.08;54.35;97292.44;5041106;28;20042;-65
2023/02/26 09:37:12;;;;;;;1.67;1.57;;;;;;;7.22;53.31;97316.09;5024783;28;20044;-67
2023/02/26 09:39:38;;;;;;;4.43;1.30;;;;;;;7.42;52.48;97317.03;5041227;28;20044;-65
2023/02/26 09:42:19;;;;;;;3.60;1.47;;;;;;;8.04;52.62;97306.34;5041003;28;20058;-65
2023/02/26 09:44:47;;;;;;;3.87;1.70;;;;;;;7.69;51.64;97320.59;5057350;28;20055;-65
2023/02/26 09:47:15;;;;;;;2.10;1.20;;;;;;;7.28;50.89;97311.84;5041336;28;20422;-66
2023/02/26 09:49:54;;;;;;;2.90;1.70;;;;;;;8.03;51.35;97333.78;5041275;28;20040;-65
2023/02/26 09:52:40;;;;;;;1.73;1.50;;;;;;;8.40;50.66;97328.00;5041063;28;20044;-65
2023/02/26 09:55:42;;;;;;;1.60;1.50;;;;;;;8.36;49.75;97356.69;5024331;28;20146;-65
2023/02/26 09:58:14;;;;;;;1.50;1.40;;;;;;;7.80;48.78;97347.31;5030547;28;20060;-65
2023/02/26 10:01:07;;;;;;;1.60;1.50;;;;;;;8.24;48.50;97373.34;5057996;28;20044;-65
2023/02/26 10:03:33;;;;;;;;;;;;;;;8.24;47.07;97357.47;5074290;28;20210;-66
2023/02/26 10:06:40;;;;;;;2.30;1.30;;;;;;;8.30;47.08;97368.06;5070525;28;20438;-65
2023/02/26 10:09:29;;;;;;;2.63;1.57;;;;;;;8.31;46.45;97350.38;4979648;28;20042;-65
2023/02/26 10:12:01;;;;;;;1.50;1.40;;;;;;;8.06;45.73;97365.91;4971820;28;20079;-66
2023/02/26 10:14:33;;;;;;;3.47;1.40;;;;;;;8.10;44.88;97363.69;5052135;28;20066;-65
2023/02/26 10:17:04;;;;;;;1.10;1.10;;;;;;;8.27;43.88;97376.38;5059992;28;20046;-65
2023/02/26 10:19:38;;;;;;;1.33;1.20;;;;;;;8.35;43.09;97380.69;5059916;28;20048;-66
2023/02/26 10:22:27;;;;;;;1.20;1.10;;;;;;;8.51;43.10;97367.09;5077100;28;20040;-65
2023/02/26 10:25:06;;;;;;;1.20;1.10;;;;;;;8.37;42.35;97402.47;5076830;28;20044;-67
2023/02/26 10:27:52;;;;;;;2.10;1.30;;;;;;;8.48;41.91;97383.38;5060165;28;20302;-65
2023/02/26 10:30:51;;;;;;;1.83;1.40;;;;;;;8.48;42.16;97378.09;5093520;28;20052;-65
2023/02/26 10:33:24;;;;;;;1.60;1.50;;;;;;;8.34;42.47;97400.22;5077872;28;20138;-65
2023/02/26 10:35:53;;;;;;;1.20;1.10;;;;;;;8.05;42.59;97451.53;5097631;28;20115;-65
2023/02/26 10:38:25;;;;;;;1.87;1.50;;;;;;;8.32;42.92;97378.44;5097600;28;20101;-65
2023/02/26 10:40:58;;;;;;;2.67;1.83;;;;;;;8.56;42.83;97381.34;5080954;28;20057;-64
2023/02/26 10:43:24;;;;;;;2.60;1.80;;;;;;;7.94;42.86;97388.63;5064117;28;20486;-65
2023/02/26 10:46:02;;;;;;;1.87;1.40;;;;;;;8.63;43.08;97383.19;5080401;28;20054;-65
2023/02/26 10:48:46;;;;;;;2.60;1.70;;;;;;;8.66;42.80;97391.56;5080386;28;20474;-65
2023/02/26 10:51:15;;;;;;;4.30;1.50;;;;;;;8.37;43.42;97381.31;5080617;28;20055;-65
2023/02/26 10:53:43;;;;;;;3.03;1.83;;;;;;;8.55;43.17;97408.84;5080598;28;20048;-65
2023/02/26 10:56:45;;;;;;;2.13;1.87;;;;;;;8.88;43.43;97387.72;5080633;28;20097;-64
2023/02/26 10:59:11;;;;;;;1.83;1.50;;;;;;;8.13;43.94;97402.97;5036681;28;20051;-65
2023/02/26 11:01:37;;;;;;;1.93;1.57;;;;;;;8.11;44.46;97455.19;5080270;28;20066;-65
2023/02/26 11:04:10;;;;;;;1.53;1.40;;;;;;;8.41;45.46;97396.56;5063481;28;20470;-64
2023/02/26 11:06:46;;;;;;;4.20;1.87;;;;;;;8.82;45.09;97411.53;5114953;28;20973;-65
2023/02/26 11:09:22;;;;;;;1.80;1.40;;;;;;;8.50;45.66;97402.53;5064562;28;20047;-65
2023/02/26 11:11:54;;;;;;;1.70;1.60;;;;;;;8.34;46.34;97439.88;5079338;28;20059;-65
2023/02/26 11:14:21;;;;;;;3.20;1.70;;;;;;;8.20;46.25;97440.78;5063691;28;20040;-65
2023/02/26 11:16:53;;;;;;;2.00;1.63;;;;;;;8.07;47.42;97396.59;5114903;28;20040;-68
2023/02/26 11:19:30;;;;;;;4.63;1.40;;;;;;;8.13;46.98;97397.66;5096950;28;20046;-65
2023/02/26 11:21:56;;;;;;;3.00;1.63;;;;;;;7.87;47.13;97432.69;5097056;28;20073;-64
2023/02/26 11:24:28;;;;;;;2.57;1.60;;;;;;;8.28;47.54;97408.94;5088516;28;20085;-66
2023/02/26 11:26:56;;;;;;;3.33;1.80;;;;;;;7.97;48.21;97414.66;5042603;28;20051;-65
2023/02/26 11:29:24;;;;;;;1.90;1.67;;;;;;;8.08;48.04;97419.41;5076401;28;20067;-65
2023/02/26 11:31:54;;;;;;;1.40;1.30;;;;;;;8.50;47.00;97410.47;5026778;28;20475;-65
2023/02/26 11:34:24;;;;;;;2.42;1.42;;;;;;;8.30;47.11;97428.06;5043281;28;20479;-65
2023/02/26 11:36:52;;;;;;;2.10;1.40;;;;;;;8.25;46.75;97446.34;5059601;28;20051;-65
2023/02/26 11:39:22;;;;;;;1.60;1.50;;;;;;;8.17;47.42;97406.81;5059492;28;20048;-66
2023/02/26 11:41:49;;;;;;;4.43;1.80;;;;;;;8.09;48.13;97434.25;5076163;28;20043;-66
2023/02/26 11:44:23;;;;;;;2.60;1.90;;;;;;;8.15;48.75;97493.44;5042997;28;20065;-65
2023/02/26 11:46:55;;;;;;;2.43;2.17;;;;;;;9.02;49.15;97430.91;5075707;28;20055;-65
2023/02/26 11:49:24;;;;;;;2.07;1.87;;;;;;;9.11;47.42;97422.56;5058780;28;20052;-66
2023/02/26 11:52:14;;;;;;;3.22;1.98;;;;;;;9.41;46.71;97439.69;5058789;28;20056;-65
2023/02/26 11:54:40;;;;;;;3.38;1.60;;;;;;;8.39;46.21;97418.97;5074806;28;20059;-65